sensor_id;sensor_type;location;lat;lon;timestamp;P1;durP1;ratioP1;P2;durP2;ratioP2
15871;SDS011;8035;51.962;7.162;2023-08-06T00:00:09;7.07;;;5.53;;
15871;SDS011;8035;51.962;7.162;2023-08-06T00:02:35;7.87;;;6.20;;
15871;SDS011;8035;51.962;7.162;2023-08-06T00:05:00;6.03;;;5.40;;
15871;SDS011;8035;51.962;7.162;2023-08-06T00:07:26;7.23;;;5.90;;
15871;SDS011;8035;51.962;7.162;2023-08-06T00:09:52;6.63;;;5.87;;
15871;SDS011;8035;51.962;7.162;2023-08-06T00:12:18;9.60;;;6.23;;
15871;SDS011;8035;51.962;7.162;2023-08-06T00:14:43;8.47;;;5.63;;
15871;SDS011;8035;51.962;7.162;2023-08-06T00:17:09;7.37;;;5.13;;
15871;SDS011;8035;51.962;7.162;2023-08-06T00:19:35;8.10;;;5.60;;
15871;SDS011;8035;51.962;7.162;2023-08-06T00:22:01;7.13;;;5.97;;
15871;SDS011;8035;51.962;7.162;2023-08-06T00:24:27;8.53;;;6.53;;
15871;SDS011;8035;51.962;7.162;2023-08-06T00:26:53;6.60;;;6.00;;
15871;SDS011;8035;51.962;7.162;2023-08-06T00:29:19;7.77;;;5.77;;
15871;SDS011;8035;51.962;7.162;2023-08-06T00:31:44;7.20;;;6.50;;
15871;SDS011;8035;51.962;7.162;2023-08-06T00:34:10;6.10;;;5.50;;
15871;SDS011;8035;51.962;7.162;2023-08-06T00:36:36;7.03;;;5.67;;
15871;SDS011;8035;51.962;7.162;2023-08-06T00:39:01;8.00;;;6.27;;
15871;SDS011;8035;51.962;7.162;2023-08-06T00:41:28;7.07;;;6.20;;
15871;SDS011;8035;51.962;7.162;2023-08-06T00:43:53;6.40;;;5.80;;
15871;SDS011;8035;51.962;7.162;2023-08-06T00:46:19;7.87;;;6.40;;
15871;SDS011;8035;51.962;7.162;2023-08-06T00:48:45;7.77;;;5.73;;
15871;SDS011;8035;51.962;7.162;2023-08-06T00:51:11;6.53;;;5.87;;
15871;SDS011;8035;51.962;7.162;2023-08-06T00:53:37;7.10;;;5.80;;
15871;SDS011;8035;51.962;7.162;2023-08-06T00:56:04;6.67;;;6.00;;
15871;SDS011;8035;51.962;7.162;2023-08-06T00:58:30;7.43;;;6.30;;
15871;SDS011;8035;51.962;7.162;2023-08-06T01:00:55;6.53;;;5.63;;
15871;SDS011;8035;51.962;7.162;2023-08-06T01:03:21;5.70;;;5.20;;
15871;SDS011;8035;51.962;7.162;2023-08-06T01:05:46;6.37;;;5.77;;
15871;SDS011;8035;51.962;7.162;2023-08-06T01:08:19;9.83;;;6.03;;
15871;SDS011;8035;51.962;7.162;2023-08-06T01:16:09;7.73;;;5.90;;
15871;SDS011;8035;51.962;7.162;2023-08-06T01:18:36;7.23;;;6.50;;
15871;SDS011;8035;51.962;7.162;2023-08-06T01:21:04;5.53;;;5.03;;
15871;SDS011;8035;51.962;7.162;2023-08-06T01:23:29;8.03;;;6.60;;
15871;SDS011;8035;51.962;7.162;2023-08-06T01:31:32;8.67;;;5.60;;
15871;SDS011;8035;51.962;7.162;2023-08-06T01:34:02;8.13;;;6.40;;
15871;SDS011;8035;51.962;7.162;2023-08-06T01:36:30;6.57;;;5.90;;
15871;SDS011;8035;51.962;7.162;2023-08-06T01:38:57;7.00;;;6.27;;
15871;SDS011;8035;51.962;7.162;2023-08-06T01:41:23;6.13;;;5.30;;
15871;SDS011;8035;51.962;7.162;2023-08-06T01:43:48;7.83;;;5.77;;
15871;SDS011;8035;51.962;7.162;2023-08-06T01:46:14;6.07;;;5.47;;
15871;SDS011;8035;51.962;7.162;2023-08-06T01:48:39;6.30;;;5.27;;
15871;SDS011;8035;51.962;7.162;2023-08-06T01:51:05;7.63;;;5.43;;
15871;SDS011;8035;51.962;7.162;2023-08-06T01:53:32;7.97;;;6.40;;
15871;SDS011;8035;51.962;7.162;2023-08-06T01:55:57;7.77;;;6.80;;
15871;SDS011;8035;51.962;7.162;2023-08-06T01:58:23;8.57;;;6.90;;
15871;SDS011;8035;51.962;7.162;2023-08-06T02:00:49;7.57;;;6.70;;
15871;SDS011;8035;51.962;7.162;2023-08-06T02:03:14;8.00;;;7.03;;
15871;SDS011;8035;51.962;7.162;2023-08-06T02:05:40;7.03;;;6.23;;
15871;SDS011;8035;51.962;7.162;2023-08-06T02:08:05;6.60;;;6.00;;
15871;SDS011;8035;51.962;7.162;2023-08-06T02:10:31;6.73;;;6.00;;
15871;SDS011;8035;51.962;7.162;2023-08-06T02:12:57;7.77;;;6.93;;
15871;SDS011;8035;51.962;7.162;2023-08-06T02:15:22;7.73;;;6.97;;
15871;SDS011;8035;51.962;7.162;2023-08-06T02:17:48;7.17;;;6.47;;
15871;SDS011;8035;51.962;7.162;2023-08-06T02:20:14;9.17;;;6.23;;
15871;SDS011;8035;51.962;7.162;2023-08-06T02:22:39;11.03;;;7.10;;
15871;SDS011;8035;51.962;7.162;2023-08-06T02:25:05;10.80;;;7.30;;
15871;SDS011;8035;51.962;7.162;2023-08-06T02:27:31;8.03;;;6.80;;
15871;SDS011;8035;51.962;7.162;2023-08-06T02:29:56;11.33;;;7.43;;
15871;SDS011;8035;51.962;7.162;2023-08-06T02:32:22;7.90;;;7.13;;
15871;SDS011;8035;51.962;7.162;2023-08-06T02:34:47;7.03;;;6.30;;
15871;SDS011;8035;51.962;7.162;2023-08-06T02:37:13;7.27;;;6.57;;
15871;SDS011;8035;51.962;7.162;2023-08-06T02:39:38;6.97;;;6.27;;
15871;SDS011;8035;51.962;7.162;2023-08-06T02:42:08;8.90;;;7.40;;
15871;SDS011;8035;51.962;7.162;2023-08-06T02:44:34;7.93;;;7.13;;
15871;SDS011;8035;51.962;7.162;2023-08-06T02:47:00;7.70;;;7.00;;
15871;SDS011;8035;51.962;7.162;2023-08-06T02:49:26;8.07;;;6.83;;
15871;SDS011;8035;51.962;7.162;2023-08-06T02:51:52;9.23;;;6.73;;
15871;SDS011;8035;51.962;7.162;2023-08-06T02:54:18;7.20;;;6.50;;
15871;SDS011;8035;51.962;7.162;2023-08-06T02:56:44;6.90;;;6.13;;
15871;SDS011;8035;51.962;7.162;2023-08-06T02:59:11;7.87;;;6.43;;
15871;SDS011;8035;51.962;7.162;2023-08-06T03:01:36;8.23;;;6.10;;
15871;SDS011;8035;51.962;7.162;2023-08-06T03:04:02;6.43;;;5.80;;
15871;SDS011;8035;51.962;7.162;2023-08-06T03:06:28;7.50;;;6.70;;
15871;SDS011;8035;51.962;7.162;2023-08-06T03:08:54;11.13;;;6.80;;
15871;SDS011;8035;51.962;7.162;2023-08-06T03:11:19;9.57;;;7.37;;
15871;SDS011;8035;51.962;7.162;2023-08-06T03:13:46;7.90;;;6.03;;
15871;SDS011;8035;51.962;7.162;2023-08-06T03:16:14;7.07;;;6.37;;
15871;SDS011;8035;51.962;7.162;2023-08-06T03:18:40;11.33;;;7.20;;
15871;SDS011;8035;51.962;7.162;2023-08-06T03:21:06;8.27;;;6.63;;
15871;SDS011;8035;51.962;7.162;2023-08-06T03:23:31;8.13;;;7.33;;
15871;SDS011;8035;51.962;7.162;2023-08-06T03:26:03;12.23;;;7.67;;
15871;SDS011;8035;51.962;7.162;2023-08-06T03:28:29;10.13;;;8.03;;
15871;SDS011;8035;51.962;7.162;2023-08-06T03:30:58;9.97;;;6.53;;
15871;SDS011;8035;51.962;7.162;2023-08-06T03:33:25;7.70;;;6.83;;
15871;SDS011;8035;51.962;7.162;2023-08-06T03:35:51;8.53;;;7.23;;
15871;SDS011;8035;51.962;7.162;2023-08-06T03:38:16;7.47;;;6.53;;
15871;SDS011;8035;51.962;7.162;2023-08-06T03:40:42;7.67;;;6.90;;
15871;SDS011;8035;51.962;7.162;2023-08-06T03:43:08;8.13;;;6.67;;
15871;SDS011;8035;51.962;7.162;2023-08-06T03:45:33;7.40;;;6.70;;
15871;SDS011;8035;51.962;7.162;2023-08-06T03:47:59;9.57;;;7.20;;
15871;SDS011;8035;51.962;7.162;2023-08-06T03:50:24;9.57;;;7.73;;
15871;SDS011;8035;51.962;7.162;2023-08-06T03:52:50;9.03;;;6.53;;
15871;SDS011;8035;51.962;7.162;2023-08-06T03:55:15;7.70;;;6.90;;
15871;SDS011;8035;51.962;7.162;2023-08-06T03:57:41;7.47;;;6.20;;
15871;SDS011;8035;51.962;7.162;2023-08-06T04:00:07;8.27;;;7.00;;
15871;SDS011;8035;51.962;7.162;2023-08-06T04:02:33;8.27;;;6.93;;
15871;SDS011;8035;51.962;7.162;2023-08-06T04:04:58;6.83;;;6.20;;
15871;SDS011;8035;51.962;7.162;2023-08-06T04:07:24;10.47;;;8.07;;
15871;SDS011;8035;51.962;7.162;2023-08-06T04:09:53;8.27;;;6.87;;
15871;SDS011;8035;51.962;7.162;2023-08-06T04:12:23;11.93;;;7.23;;
15871;SDS011;8035;51.962;7.162;2023-08-06T04:14:49;8.63;;;7.67;;
15871;SDS011;8035;51.962;7.162;2023-08-06T04:17:16;9.23;;;7.60;;
15871;SDS011;8035;51.962;7.162;2023-08-06T04:19:45;8.80;;;7.90;;
15871;SDS011;8035;51.962;7.162;2023-08-06T04:22:11;9.17;;;7.20;;
15871;SDS011;8035;51.962;7.162;2023-08-06T04:24:36;8.23;;;7.37;;
15871;SDS011;8035;51.962;7.162;2023-08-06T04:27:02;11.47;;;6.80;;
15871;SDS011;8035;51.962;7.162;2023-08-06T04:29:28;7.80;;;6.60;;
15871;SDS011;8035;51.962;7.162;2023-08-06T04:31:54;8.07;;;7.03;;
15871;SDS011;8035;51.962;7.162;2023-08-06T04:34:19;7.27;;;6.57;;
15871;SDS011;8035;51.962;7.162;2023-08-06T04:36:45;6.67;;;5.93;;
15871;SDS011;8035;51.962;7.162;2023-08-06T04:39:10;7.90;;;7.10;;
15871;SDS011;8035;51.962;7.162;2023-08-06T04:41:36;10.40;;;6.37;;
15871;SDS011;8035;51.962;7.162;2023-08-06T04:44:01;9.60;;;6.70;;
15871;SDS011;8035;51.962;7.162;2023-08-06T04:46:28;8.17;;;6.70;;
15871;SDS011;8035;51.962;7.162;2023-08-06T04:48:54;7.93;;;7.13;;
15871;SDS011;8035;51.962;7.162;2023-08-06T04:51:19;9.93;;;7.47;;
15871;SDS011;8035;51.962;7.162;2023-08-06T04:53:45;7.60;;;6.57;;
15871;SDS011;8035;51.962;7.162;2023-08-06T04:56:10;7.10;;;5.93;;
15871;SDS011;8035;51.962;7.162;2023-08-06T04:58:36;7.30;;;6.40;;
15871;SDS011;8035;51.962;7.162;2023-08-06T05:01:01;8.17;;;7.00;;
15871;SDS011;8035;51.962;7.162;2023-08-06T05:03:27;8.93;;;6.90;;
15871;SDS011;8035;51.962;7.162;2023-08-06T05:05:52;7.27;;;6.53;;
15871;SDS011;8035;51.962;7.162;2023-08-06T05:08:18;8.33;;;6.73;;
15871;SDS011;8035;51.962;7.162;2023-08-06T05:10:44;8.17;;;6.90;;
15871;SDS011;8035;51.962;7.162;2023-08-06T05:13:10;7.17;;;6.47;;
15871;SDS011;8035;51.962;7.162;2023-08-06T05:15:36;9.13;;;6.33;;
15871;SDS011;8035;51.962;7.162;2023-08-06T05:18:01;7.37;;;6.00;;
15871;SDS011;8035;51.962;7.162;2023-08-06T05:20:27;9.00;;;7.43;;
15871;SDS011;8035;51.962;7.162;2023-08-06T05:22:52;9.60;;;7.13;;
15871;SDS011;8035;51.962;7.162;2023-08-06T05:25:18;6.83;;;5.40;;
15871;SDS011;8035;51.962;7.162;2023-08-06T05:27:44;8.97;;;6.33;;
15871;SDS011;8035;51.962;7.162;2023-08-06T05:30:09;8.70;;;6.87;;
15871;SDS011;8035;51.962;7.162;2023-08-06T05:32:35;7.70;;;6.63;;
15871;SDS011;8035;51.962;7.162;2023-08-06T05:35:01;8.13;;;5.93;;
15871;SDS011;8035;51.962;7.162;2023-08-06T05:37:27;6.10;;;5.50;;
15871;SDS011;8035;51.962;7.162;2023-08-06T05:39:53;9.23;;;5.70;;
15871;SDS011;8035;51.962;7.162;2023-08-06T05:42:19;7.83;;;7.13;;
15871;SDS011;8035;51.962;7.162;2023-08-06T05:44:44;7.37;;;6.63;;
15871;SDS011;8035;51.962;7.162;2023-08-06T05:47:10;6.27;;;5.67;;
15871;SDS011;8035;51.962;7.162;2023-08-06T05:49:35;9.40;;;7.10;;
15871;SDS011;8035;51.962;7.162;2023-08-06T05:52:01;8.63;;;6.00;;
15871;SDS011;8035;51.962;7.162;2023-08-06T05:54:27;7.70;;;6.07;;
15871;SDS011;8035;51.962;7.162;2023-08-06T05:56:53;7.63;;;6.00;;
15871;SDS011;8035;51.962;7.162;2023-08-06T05:59:18;6.87;;;6.20;;
15871;SDS011;8035;51.962;7.162;2023-08-06T06:01:44;7.03;;;5.27;;
15871;SDS011;8035;51.962;7.162;2023-08-06T06:04:09;8.63;;;5.80;;
15871;SDS011;8035;51.962;7.162;2023-08-06T06:06:35;7.10;;;5.83;;
15871;SDS011;8035;51.962;7.162;2023-08-06T06:09:00;5.73;;;5.23;;
15871;SDS011;8035;51.962;7.162;2023-08-06T06:11:26;5.23;;;4.77;;
15871;SDS011;8035;51.962;7.162;2023-08-06T06:13:52;9.13;;;4.80;;
15871;SDS011;8035;51.962;7.162;2023-08-06T06:16:17;4.63;;;4.23;;
15871;SDS011;8035;51.962;7.162;2023-08-06T06:18:43;5.67;;;5.17;;
15871;SDS011;8035;51.962;7.162;2023-08-06T06:21:09;5.20;;;4.63;;
15871;SDS011;8035;51.962;7.162;2023-08-06T06:23:35;7.27;;;4.60;;
15871;SDS011;8035;51.962;7.162;2023-08-06T06:26:00;6.83;;;4.97;;
15871;SDS011;8035;51.962;7.162;2023-08-06T06:28:26;6.77;;;4.07;;
15871;SDS011;8035;51.962;7.162;2023-08-06T06:30:51;4.90;;;4.23;;
15871;SDS011;8035;51.962;7.162;2023-08-06T06:33:17;5.53;;;4.77;;
15871;SDS011;8035;51.962;7.162;2023-08-06T06:35:43;5.63;;;4.97;;
15871;SDS011;8035;51.962;7.162;2023-08-06T06:38:08;7.33;;;4.90;;
15871;SDS011;8035;51.962;7.162;2023-08-06T06:40:34;5.00;;;4.60;;
15871;SDS011;8035;51.962;7.162;2023-08-06T06:42:59;6.23;;;4.27;;
15871;SDS011;8035;51.962;7.162;2023-08-06T06:45:25;4.70;;;4.07;;
15871;SDS011;8035;51.962;7.162;2023-08-06T06:47:51;5.27;;;4.70;;
15871;SDS011;8035;51.962;7.162;2023-08-06T06:50:16;8.57;;;4.80;;
15871;SDS011;8035;51.962;7.162;2023-08-06T06:52:42;4.97;;;4.47;;
15871;SDS011;8035;51.962;7.162;2023-08-06T06:55:07;5.90;;;4.07;;
15871;SDS011;8035;51.962;7.162;2023-08-06T06:57:33;4.50;;;4.10;;
15871;SDS011;8035;51.962;7.162;2023-08-06T06:59:59;4.73;;;4.20;;
15871;SDS011;8035;51.962;7.162;2023-08-06T07:02:25;5.53;;;4.43;;
15871;SDS011;8035;51.962;7.162;2023-08-06T07:04:50;5.40;;;4.07;;
15871;SDS011;8035;51.962;7.162;2023-08-06T07:07:16;5.80;;;4.17;;
15871;SDS011;8035;51.962;7.162;2023-08-06T07:09:41;4.90;;;4.40;;
15871;SDS011;8035;51.962;7.162;2023-08-06T07:12:07;6.87;;;4.50;;
15871;SDS011;8035;51.962;7.162;2023-08-06T07:14:33;4.87;;;4.37;;
15871;SDS011;8035;51.962;7.162;2023-08-06T07:16:58;4.40;;;3.73;;
15871;SDS011;8035;51.962;7.162;2023-08-06T07:19:24;4.20;;;3.73;;
15871;SDS011;8035;51.962;7.162;2023-08-06T07:21:49;4.57;;;3.73;;
15871;SDS011;8035;51.962;7.162;2023-08-06T07:24:15;4.47;;;3.63;;
15871;SDS011;8035;51.962;7.162;2023-08-06T07:26:41;4.20;;;3.80;;
15871;SDS011;8035;51.962;7.162;2023-08-06T07:29:07;4.53;;;3.87;;
15871;SDS011;8035;51.962;7.162;2023-08-06T07:31:32;4.90;;;4.40;;
15871;SDS011;8035;51.962;7.162;2023-08-06T07:33:58;4.30;;;3.90;;
15871;SDS011;8035;51.962;7.162;2023-08-06T07:36:24;4.03;;;3.63;;
15871;SDS011;8035;51.962;7.162;2023-08-06T07:38:49;4.30;;;3.57;;
15871;SDS011;8035;51.962;7.162;2023-08-06T07:41:20;4.60;;;3.63;;
15871;SDS011;8035;51.962;7.162;2023-08-06T07:43:46;5.40;;;3.77;;
15871;SDS011;8035;51.962;7.162;2023-08-06T07:46:12;4.57;;;4.00;;
15871;SDS011;8035;51.962;7.162;2023-08-06T07:48:38;5.30;;;4.00;;
15871;SDS011;8035;51.962;7.162;2023-08-06T07:51:04;5.43;;;3.80;;
15871;SDS011;8035;51.962;7.162;2023-08-06T07:53:29;4.50;;;4.10;;
15871;SDS011;8035;51.962;7.162;2023-08-06T07:55:55;4.10;;;3.70;;
15871;SDS011;8035;51.962;7.162;2023-08-06T07:58:23;4.90;;;3.90;;
15871;SDS011;8035;51.962;7.162;2023-08-06T08:00:50;4.93;;;4.43;;
15871;SDS011;8035;51.962;7.162;2023-08-06T08:03:16;4.93;;;4.30;;
15871;SDS011;8035;51.962;7.162;2023-08-06T08:05:42;5.23;;;4.73;;
15871;SDS011;8035;51.962;7.162;2023-08-06T08:08:09;5.00;;;4.60;;
15871;SDS011;8035;51.962;7.162;2023-08-06T08:10:35;6.67;;;4.30;;
15871;SDS011;8035;51.962;7.162;2023-08-06T08:13:01;5.43;;;4.30;;
15871;SDS011;8035;51.962;7.162;2023-08-06T08:15:28;4.93;;;4.50;;
15871;SDS011;8035;51.962;7.162;2023-08-06T08:17:54;5.90;;;5.10;;
15871;SDS011;8035;51.962;7.162;2023-08-06T08:20:20;5.33;;;4.83;;
15871;SDS011;8035;51.962;7.162;2023-08-06T08:22:46;5.97;;;5.40;;
15871;SDS011;8035;51.962;7.162;2023-08-06T08:25:12;5.80;;;5.20;;
15871;SDS011;8035;51.962;7.162;2023-08-06T08:27:37;5.20;;;4.70;;
15871;SDS011;8035;51.962;7.162;2023-08-06T08:30:03;6.20;;;5.03;;
15871;SDS011;8035;51.962;7.162;2023-08-06T08:32:29;5.73;;;4.67;;
15871;SDS011;8035;51.962;7.162;2023-08-06T08:34:55;8.03;;;5.13;;
15871;SDS011;8035;51.962;7.162;2023-08-06T08:37:20;4.97;;;4.50;;
15871;SDS011;8035;51.962;7.162;2023-08-06T08:39:46;4.93;;;4.53;;
15871;SDS011;8035;51.962;7.162;2023-08-06T08:42:12;7.17;;;4.50;;
15871;SDS011;8035;51.962;7.162;2023-08-06T08:44:38;6.03;;;4.47;;
15871;SDS011;8035;51.962;7.162;2023-08-06T08:47:06;4.67;;;4.27;;
15871;SDS011;8035;51.962;7.162;2023-08-06T08:49:31;4.80;;;4.33;;
15871;SDS011;8035;51.962;7.162;2023-08-06T08:51:59;6.10;;;4.80;;
15871;SDS011;8035;51.962;7.162;2023-08-06T08:54:26;6.90;;;5.00;;
15871;SDS011;8035;51.962;7.162;2023-08-06T08:56:53;5.50;;;4.60;;
15871;SDS011;8035;51.962;7.162;2023-08-06T08:59:20;5.67;;;5.17;;
15871;SDS011;8035;51.962;7.162;2023-08-06T09:01:45;6.13;;;4.93;;
15871;SDS011;8035;51.962;7.162;2023-08-06T09:04:16;7.20;;;4.93;;
15871;SDS011;8035;51.962;7.162;2023-08-06T09:06:42;6.97;;;5.60;;
15871;SDS011;8035;51.962;7.162;2023-08-06T09:09:13;6.40;;;5.80;;
15871;SDS011;8035;51.962;7.162;2023-08-06T09:11:51;6.40;;;5.77;;
15871;SDS011;8035;51.962;7.162;2023-08-06T09:14:17;7.07;;;5.60;;
15871;SDS011;8035;51.962;7.162;2023-08-06T09:16:43;7.20;;;5.27;;
15871;SDS011;8035;51.962;7.162;2023-08-06T09:19:11;6.73;;;5.63;;
15871;SDS011;8035;51.962;7.162;2023-08-06T09:21:40;6.13;;;5.20;;
15871;SDS011;8035;51.962;7.162;2023-08-06T09:26:36;6.30;;;5.70;;
15871;SDS011;8035;51.962;7.162;2023-08-06T09:29:06;7.53;;;6.67;;
15871;SDS011;8035;51.962;7.162;2023-08-06T09:31:33;6.80;;;6.10;;
15871;SDS011;8035;51.962;7.162;2023-08-06T09:34:15;5.67;;;5.17;;
15871;SDS011;8035;51.962;7.162;2023-08-06T09:36:43;6.47;;;5.53;;
15871;SDS011;8035;51.962;7.162;2023-08-06T09:39:13;6.70;;;5.90;;
15871;SDS011;8035;51.962;7.162;2023-08-06T09:41:40;6.20;;;5.70;;
15871;SDS011;8035;51.962;7.162;2023-08-06T09:44:12;7.77;;;5.67;;
15871;SDS011;8035;51.962;7.162;2023-08-06T09:46:47;6.93;;;5.50;;
15871;SDS011;8035;51.962;7.162;2023-08-06T09:49:18;9.37;;;6.07;;
15871;SDS011;8035;51.962;7.162;2023-08-06T09:51:45;6.60;;;5.90;;
15871;SDS011;8035;51.962;7.162;2023-08-06T09:54:12;6.97;;;6.23;;
15871;SDS011;8035;51.962;7.162;2023-08-06T09:56:38;6.47;;;5.80;;
15871;SDS011;8035;51.962;7.162;2023-08-06T09:59:05;7.13;;;6.40;;
15871;SDS011;8035;51.962;7.162;2023-08-06T10:01:34;8.37;;;6.63;;
15871;SDS011;8035;51.962;7.162;2023-08-06T10:04:01;6.07;;;5.47;;
15871;SDS011;8035;51.962;7.162;2023-08-06T10:06:29;7.13;;;6.27;;
15871;SDS011;8035;51.962;7.162;2023-08-06T10:08:55;4.97;;;4.57;;
15871;SDS011;8035;51.962;7.162;2023-08-06T10:11:22;8.60;;;6.07;;
15871;SDS011;8035;51.962;7.162;2023-08-06T10:13:50;8.03;;;6.17;;
15871;SDS011;8035;51.962;7.162;2023-08-06T10:16:19;6.97;;;5.53;;
15871;SDS011;8035;51.962;7.162;2023-08-06T10:18:45;5.40;;;4.90;;
15871;SDS011;8035;51.962;7.162;2023-08-06T10:21:13;5.03;;;4.53;;
15871;SDS011;8035;51.962;7.162;2023-08-06T10:23:40;4.63;;;4.17;;
15871;SDS011;8035;51.962;7.162;2023-08-06T10:26:05;6.73;;;4.47;;
15871;SDS011;8035;51.962;7.162;2023-08-06T10:28:38;4.30;;;3.87;;
15871;SDS011;8035;51.962;7.162;2023-08-06T10:31:05;4.50;;;4.10;;
15871;SDS011;8035;51.962;7.162;2023-08-06T10:33:47;5.10;;;4.50;;
15871;SDS011;8035;51.962;7.162;2023-08-06T10:36:14;4.63;;;3.90;;
15871;SDS011;8035;51.962;7.162;2023-08-06T10:38:47;3.80;;;3.50;;
15871;SDS011;8035;51.962;7.162;2023-08-06T10:41:21;5.53;;;4.00;;
15871;SDS011;8035;51.962;7.162;2023-08-06T10:43:49;5.43;;;3.53;;
15871;SDS011;8035;51.962;7.162;2023-08-06T10:46:27;4.30;;;3.70;;
15871;SDS011;8035;51.962;7.162;2023-08-06T10:48:53;4.47;;;3.40;;
15871;SDS011;8035;51.962;7.162;2023-08-06T10:51:19;3.70;;;3.40;;
15871;SDS011;8035;51.962;7.162;2023-08-06T10:53:46;3.37;;;3.07;;
15871;SDS011;8035;51.962;7.162;2023-08-06T10:56:15;3.22;;;2.75;;
15871;SDS011;8035;51.962;7.162;2023-08-06T10:58:42;2.97;;;2.67;;
15871;SDS011;8035;51.962;7.162;2023-08-06T11:01:11;3.77;;;2.70;;
15871;SDS011;8035;51.962;7.162;2023-08-06T11:03:38;2.90;;;2.60;;
15871;SDS011;8035;51.962;7.162;2023-08-06T11:06:04;3.33;;;2.93;;
15871;SDS011;8035;51.962;7.162;2023-08-06T11:08:47;5.47;;;2.60;;
15871;SDS011;8035;51.962;7.162;2023-08-06T11:11:14;4.25;;;3.30;;
15871;SDS011;8035;51.962;7.162;2023-08-06T11:13:42;2.92;;;2.72;;
15871;SDS011;8035;51.962;7.162;2023-08-06T11:16:10;2.90;;;2.60;;
15871;SDS011;8035;51.962;7.162;2023-08-06T11:18:37;4.30;;;3.03;;
15871;SDS011;8035;51.962;7.162;2023-08-06T11:21:03;3.40;;;2.63;;
15871;SDS011;8035;51.962;7.162;2023-08-06T11:23:28;3.37;;;2.90;;
15871;SDS011;8035;51.962;7.162;2023-08-06T11:25:55;2.77;;;2.57;;
15871;SDS011;8035;51.962;7.162;2023-08-06T11:28:21;3.73;;;3.40;;
15871;SDS011;8035;51.962;7.162;2023-08-06T11:30:47;4.03;;;2.67;;
15871;SDS011;8035;51.962;7.162;2023-08-06T11:33:13;3.93;;;3.53;;
15871;SDS011;8035;51.962;7.162;2023-08-06T11:35:39;3.43;;;3.13;;
15871;SDS011;8035;51.962;7.162;2023-08-06T11:38:05;4.93;;;3.73;;
15871;SDS011;8035;51.962;7.162;2023-08-06T11:40:32;4.93;;;3.10;;
15871;SDS011;8035;51.962;7.162;2023-08-06T11:43:00;3.93;;;3.40;;
15871;SDS011;8035;51.962;7.162;2023-08-06T11:45:25;3.40;;;3.10;;
15871;SDS011;8035;51.962;7.162;2023-08-06T11:47:51;5.13;;;3.97;;
15871;SDS011;8035;51.962;7.162;2023-08-06T11:50:24;5.60;;;3.87;;
15871;SDS011;8035;51.962;7.162;2023-08-06T11:52:57;4.13;;;3.73;;
15871;SDS011;8035;51.962;7.162;2023-08-06T11:55:24;5.13;;;4.63;;
15871;SDS011;8035;51.962;7.162;2023-08-06T11:57:51;4.53;;;4.13;;
15871;SDS011;8035;51.962;7.162;2023-08-06T12:00:17;4.80;;;4.33;;
15871;SDS011;8035;51.962;7.162;2023-08-06T12:02:45;4.93;;;3.93;;
15871;SDS011;8035;51.962;7.162;2023-08-06T12:05:14;5.03;;;4.50;;
15871;SDS011;8035;51.962;7.162;2023-08-06T12:07:42;4.43;;;3.73;;
15871;SDS011;8035;51.962;7.162;2023-08-06T12:10:09;5.60;;;4.37;;
15871;SDS011;8035;51.962;7.162;2023-08-06T12:12:35;4.63;;;3.93;;
15871;SDS011;8035;51.962;7.162;2023-08-06T12:15:02;4.20;;;3.90;;
15871;SDS011;8035;51.962;7.162;2023-08-06T12:17:29;5.20;;;3.93;;
15871;SDS011;8035;51.962;7.162;2023-08-06T12:19:55;3.87;;;3.57;;
15871;SDS011;8035;51.962;7.162;2023-08-06T12:22:20;5.43;;;4.50;;
15871;SDS011;8035;51.962;7.162;2023-08-06T12:24:46;4.23;;;3.87;;
15871;SDS011;8035;51.962;7.162;2023-08-06T12:27:13;3.83;;;3.43;;
15871;SDS011;8035;51.962;7.162;2023-08-06T12:29:41;4.00;;;3.13;;
15871;SDS011;8035;51.962;7.162;2023-08-06T12:32:08;4.97;;;3.30;;
15871;SDS011;8035;51.962;7.162;2023-08-06T12:34:34;3.53;;;3.23;;
15871;SDS011;8035;51.962;7.162;2023-08-06T12:36:59;3.73;;;3.10;;
15871;SDS011;8035;51.962;7.162;2023-08-06T12:39:25;3.93;;;3.50;;
15871;SDS011;8035;51.962;7.162;2023-08-06T12:41:53;3.73;;;3.43;;
15871;SDS011;8035;51.962;7.162;2023-08-06T12:44:20;4.77;;;3.00;;
15871;SDS011;8035;51.962;7.162;2023-08-06T12:46:46;2.80;;;2.60;;
15871;SDS011;8035;51.962;7.162;2023-08-06T12:49:11;2.87;;;2.67;;
15871;SDS011;8035;51.962;7.162;2023-08-06T12:51:37;5.07;;;3.03;;
15871;SDS011;8035;51.962;7.162;2023-08-06T12:54:02;3.87;;;3.47;;
15871;SDS011;8035;51.962;7.162;2023-08-06T12:56:28;3.93;;;3.50;;
15871;SDS011;8035;51.962;7.162;2023-08-06T12:58:54;4.50;;;3.90;;
15871;SDS011;8035;51.962;7.162;2023-08-06T13:01:19;4.53;;;4.13;;
15871;SDS011;8035;51.962;7.162;2023-08-06T13:03:45;4.47;;;3.40;;
15871;SDS011;8035;51.962;7.162;2023-08-06T13:06:10;3.60;;;3.30;;
15871;SDS011;8035;51.962;7.162;2023-08-06T13:08:37;3.50;;;3.20;;
15871;SDS011;8035;51.962;7.162;2023-08-06T13:11:03;3.80;;;3.47;;
15871;SDS011;8035;51.962;7.162;2023-08-06T13:13:28;3.00;;;2.70;;
15871;SDS011;8035;51.962;7.162;2023-08-06T13:15:54;3.37;;;2.60;;
15871;SDS011;8035;51.962;7.162;2023-08-06T13:18:19;3.27;;;2.37;;
15871;SDS011;8035;51.962;7.162;2023-08-06T13:20:45;3.17;;;2.87;;
15871;SDS011;8035;51.962;7.162;2023-08-06T13:23:12;4.40;;;2.60;;
15871;SDS011;8035;51.962;7.162;2023-08-06T13:25:40;2.70;;;2.50;;
15871;SDS011;8035;51.962;7.162;2023-08-06T13:28:06;4.60;;;2.67;;
15871;SDS011;8035;51.962;7.162;2023-08-06T13:30:31;2.50;;;2.30;;
15871;SDS011;8035;51.962;7.162;2023-08-06T13:32:57;2.33;;;1.90;;
15871;SDS011;8035;51.962;7.162;2023-08-06T13:35:23;4.00;;;1.87;;
15871;SDS011;8035;51.962;7.162;2023-08-06T13:37:49;2.20;;;2.00;;
15871;SDS011;8035;51.962;7.162;2023-08-06T13:40:15;1.87;;;1.40;;
15871;SDS011;8035;51.962;7.162;2023-08-06T13:42:41;1.70;;;1.60;;
15871;SDS011;8035;51.962;7.162;2023-08-06T13:45:06;2.23;;;1.50;;
15871;SDS011;8035;51.962;7.162;2023-08-06T13:47:32;1.80;;;1.20;;
15871;SDS011;8035;51.962;7.162;2023-08-06T13:49:58;1.40;;;1.30;;
15871;SDS011;8035;51.962;7.162;2023-08-06T13:52:25;2.53;;;1.43;;
15871;SDS011;8035;51.962;7.162;2023-08-06T13:54:51;1.70;;;1.60;;
15871;SDS011;8035;51.962;7.162;2023-08-06T13:57:17;1.37;;;1.27;;
15871;SDS011;8035;51.962;7.162;2023-08-06T13:59:43;1.70;;;1.60;;
15871;SDS011;8035;51.962;7.162;2023-08-06T14:02:09;2.33;;;2.10;;
15871;SDS011;8035;51.962;7.162;2023-08-06T14:04:35;2.67;;;2.40;;
15871;SDS011;8035;51.962;7.162;2023-08-06T14:07:02;3.23;;;2.63;;
15871;SDS011;8035;51.962;7.162;2023-08-06T14:09:28;2.90;;;2.70;;
15871;SDS011;8035;51.962;7.162;2023-08-06T14:11:54;3.17;;;2.87;;
15871;SDS011;8035;51.962;7.162;2023-08-06T14:14:19;2.90;;;2.70;;
15871;SDS011;8035;51.962;7.162;2023-08-06T14:16:50;2.97;;;2.70;;
15871;SDS011;8035;51.962;7.162;2023-08-06T14:19:17;2.70;;;2.23;;
15871;SDS011;8035;51.962;7.162;2023-08-06T14:21:42;2.93;;;2.37;;
15871;SDS011;8035;51.962;7.162;2023-08-06T14:24:08;2.07;;;1.87;;
15871;SDS011;8035;51.962;7.162;2023-08-06T14:26:33;2.03;;;1.83;;
15871;SDS011;8035;51.962;7.162;2023-08-06T14:29:00;1.80;;;1.70;;
15871;SDS011;8035;51.962;7.162;2023-08-06T14:31:26;1.90;;;1.70;;
15871;SDS011;8035;51.962;7.162;2023-08-06T14:33:51;2.23;;;2.03;;
15871;SDS011;8035;51.962;7.162;2023-08-06T14:36:17;1.70;;;1.60;;
15871;SDS011;8035;51.962;7.162;2023-08-06T14:38:43;3.00;;;1.80;;
15871;SDS011;8035;51.962;7.162;2023-08-06T14:41:09;1.90;;;1.80;;
15871;SDS011;8035;51.962;7.162;2023-08-06T14:43:34;2.10;;;1.93;;
15871;SDS011;8035;51.962;7.162;2023-08-06T14:46:00;2.43;;;2.20;;
15871;SDS011;8035;51.962;7.162;2023-08-06T14:48:26;2.60;;;2.40;;
15871;SDS011;8035;51.962;7.162;2023-08-06T14:50:51;2.30;;;2.10;;
15871;SDS011;8035;51.962;7.162;2023-08-06T14:53:17;2.40;;;2.20;;
15871;SDS011;8035;51.962;7.162;2023-08-06T14:55:42;2.50;;;2.20;;
15871;SDS011;8035;51.962;7.162;2023-08-06T14:58:08;3.50;;;2.30;;
15871;SDS011;8035;51.962;7.162;2023-08-06T15:00:34;2.30;;;2.10;;
15871;SDS011;8035;51.962;7.162;2023-08-06T15:03:00;2.07;;;1.80;;
15871;SDS011;8035;51.962;7.162;2023-08-06T15:05:26;3.20;;;2.40;;
15871;SDS011;8035;51.962;7.162;2023-08-06T15:07:51;4.03;;;2.47;;